createdAt,value
2017-09-13T00:02:03.258Z,0
2017-09-13T00:07:08.320Z,0
2017-09-13T00:12:14.067Z,0
2017-09-13T00:17:19.134Z,0
2017-09-13T00:22:24.871Z,0
2017-09-13T00:27:29.937Z,0
2017-09-13T00:32:35.004Z,0
2017-09-13T00:37:40.076Z,0
2017-09-13T00:42:45.150Z,0
2017-09-13T00:47:50.897Z,0
2017-09-13T00:52:56.309Z,0
2017-09-13T00:58:01.379Z,0
2017-09-13T01:03:06.122Z,0
2017-09-13T01:08:11.195Z,0
2017-09-13T01:13:16.605Z,0
2017-09-13T01:18:23.731Z,0
2017-09-13T01:23:29.132Z,0
2017-09-13T01:28:34.533Z,0
2017-09-13T01:33:39.930Z,0
2017-09-13T01:38:45.331Z,0
2017-09-13T01:43:50.729Z,0
2017-09-13T01:48:55.458Z,0
2017-09-13T01:54:01.188Z,0
2017-09-13T01:59:06.252Z,0
2017-09-13T02:04:11.648Z,0
2017-09-13T02:09:16.707Z,0
2017-09-13T02:14:21.772Z,0
2017-09-13T02:19:27.514Z,0
2017-09-13T02:24:33.245Z,0
2017-09-13T02:29:38.311Z,0
2017-09-13T02:34:43.365Z,0
2017-09-13T02:39:48.428Z,0
2017-09-13T02:44:54.209Z,0
2017-09-13T02:49:59.938Z,0
2017-09-13T02:55:05.000Z,0
2017-09-13T03:00:10.399Z,0
2017-09-13T03:05:16.462Z,0
2017-09-13T03:10:22.192Z,0
2017-09-13T03:15:27.586Z,0
2017-09-13T03:20:33.652Z,0
2017-09-13T03:25:39.052Z,0
2017-09-13T03:30:44.810Z,0
2017-09-13T03:35:50.538Z,0
2017-09-13T03:40:55.273Z,0
2017-09-13T03:46:00.000Z,0
2017-09-13T03:51:05.061Z,0
2017-09-13T03:56:09.791Z,0
2017-09-13T04:01:15.521Z,0
2017-09-13T04:06:21.251Z,0
2017-09-13T04:11:26.367Z,0
2017-09-13T04:16:31.429Z,0
2017-09-13T04:21:36.494Z,0
2017-09-13T04:26:41.939Z,0
2017-09-13T04:31:47.003Z,0
2017-09-13T04:36:52.064Z,0
2017-09-13T04:41:57.127Z,0
2017-09-13T04:47:02.194Z,0
2017-09-13T04:52:07.253Z,0
2017-09-13T04:57:12.650Z,0
2017-09-13T05:02:18.382Z,0
2017-09-13T05:07:23.446Z,0
2017-09-13T05:12:28.172Z,0
2017-09-13T05:17:33.903Z,0
2017-09-13T05:22:38.644Z,0
2017-09-13T05:27:43.727Z,0
2017-09-13T05:32:48.792Z,0
2017-09-13T05:37:53.856Z,0
2017-09-13T05:42:58.919Z,0
2017-09-13T05:48:03.981Z,0
2017-09-13T05:53:09.715Z,0
2017-09-13T05:58:14.774Z,0
2017-09-13T06:03:20.513Z,0
2017-09-13T06:08:25.900Z,0
2017-09-13T06:13:31.634Z,0
2017-09-13T06:18:37.029Z,0
2017-09-13T06:23:42.092Z,0
2017-09-13T06:28:47.154Z,0
2017-09-13T06:33:51.879Z,0
2017-09-13T06:38:56.943Z,0
2017-09-13T06:44:02.339Z,0
2017-09-13T06:49:08.216Z,0
2017-09-13T06:54:13.280Z,0
2017-09-13T06:59:19.010Z,0
2017-09-13T07:04:24.073Z,0
2017-09-13T07:09:29.136Z,0
2017-09-13T07:14:34.198Z,0
2017-09-13T07:19:39.596Z,0
2017-09-13T07:24:44.654Z,0
2017-09-13T07:29:49.380Z,2
2017-09-13T07:34:54.455Z,9
2017-09-13T07:39:59.191Z,19
2017-09-13T07:45:04.591Z,29
2017-09-13T07:50:09.324Z,10
2017-09-13T07:55:14.719Z,4
2017-09-13T08:00:19.782Z,3
2017-09-13T08:05:25.522Z,3
2017-09-13T08:10:30.251Z,2
2017-09-13T08:15:35.315Z,2
2017-09-13T08:20:40.377Z,2
2017-09-13T08:25:46.113Z,1
2017-09-13T08:30:51.843Z,1
2017-09-13T08:35:56.906Z,1
2017-09-13T08:41:01.631Z,2
2017-09-13T08:46:07.364Z,3
2017-09-13T08:51:12.770Z,1
2017-09-13T08:56:18.503Z,2
2017-09-13T09:01:24.238Z,3
2017-09-13T09:06:28.969Z,2
2017-09-13T09:11:33.704Z,4
2017-09-13T09:16:38.759Z,1
2017-09-13T09:21:43.485Z,3
2017-09-13T09:26:48.884Z,2
2017-09-13T09:31:54.277Z,4
2017-09-13T09:36:59.683Z,3
2017-09-13T09:42:05.073Z,3
2017-09-13T09:47:09.800Z,22
2017-09-13T09:52:15.199Z,3
2017-09-13T09:57:19.597Z,2
2017-09-13T10:02:25.327Z,2
2017-09-13T10:07:31.405Z,3
2017-09-13T10:12:37.476Z,3
2017-09-13T10:17:42.206Z,2
2017-09-13T10:22:47.607Z,4
2017-09-13T10:27:52.671Z,2
2017-09-13T10:32:57.736Z,2
2017-09-13T10:38:03.137Z,1
2017-09-13T10:43:09.202Z,1
2017-09-13T10:48:14.939Z,6
2017-09-13T10:53:20.339Z,13
2017-09-13T10:58:25.159Z,10
2017-09-13T11:03:29.558Z,10
2017-09-13T11:08:34.623Z,13
2017-09-13T11:13:40.358Z,2
2017-09-13T11:18:45.084Z,19
2017-09-13T11:23:50.488Z,14
2017-09-13T11:28:56.559Z,12
2017-09-13T11:34:02.295Z,7
2017-09-13T11:39:07.026Z,17
2017-09-13T11:44:12.095Z,9
2017-09-13T11:49:18.164Z,7
2017-09-13T11:54:23.232Z,4
2017-09-13T11:59:28.296Z,5
2017-09-13T12:04:33.027Z,4
2017-09-13T12:09:38.425Z,8
2017-09-13T12:14:43.827Z,5
2017-09-13T12:19:48.558Z,4
2017-09-13T12:24:53.624Z,2
2017-09-13T12:29:59.026Z,8
2017-09-13T12:35:04.759Z,6
2017-09-13T12:40:09.823Z,10
2017-09-13T12:45:15.558Z,11
2017-09-13T12:50:20.290Z,10
2017-09-13T12:55:26.229Z,4
2017-09-13T13:00:31.630Z,8
2017-09-13T13:05:37.368Z,9
2017-09-13T13:10:42.431Z,8
2017-09-13T13:15:47.497Z,8
2017-09-13T13:20:52.901Z,6
2017-09-13T13:25:58.304Z,6
2017-09-13T13:31:02.365Z,3
2017-09-13T13:36:07.099Z,4
2017-09-13T13:41:11.158Z,1
2017-09-13T13:46:16.892Z,2
2017-09-13T13:51:21.954Z,5
2017-09-13T13:56:27.018Z,5
2017-09-13T14:01:32.081Z,2
2017-09-13T14:06:37.149Z,2
2017-09-13T14:11:42.883Z,4
2017-09-13T14:16:48.283Z,5
2017-09-13T14:21:53.696Z,3
2017-09-13T14:26:58.760Z,2
2017-09-13T14:32:04.702Z,5
2017-09-13T14:37:09.448Z,4
2017-09-13T14:42:14.847Z,3
2017-09-13T14:47:20.588Z,3
2017-09-13T14:52:25.321Z,2
2017-09-13T14:57:30.394Z,2
2017-09-13T15:02:34.808Z,3
2017-09-13T15:07:39.874Z,3
2017-09-13T15:12:45.276Z,3
2017-09-13T15:17:50.001Z,3
2017-09-13T15:22:54.728Z,3
2017-09-13T15:28:00.131Z,2
2017-09-13T15:33:04.858Z,2
2017-09-13T15:38:10.266Z,3
2017-09-13T15:43:15.668Z,3
2017-09-13T15:48:20.732Z,2
2017-09-13T15:53:26.802Z,2
2017-09-13T15:58:31.865Z,2
2017-09-13T16:03:37.267Z,2
2017-09-13T16:08:42.365Z,2
2017-09-13T16:13:48.083Z,2
2017-09-13T16:18:53.827Z,1
2017-09-13T16:23:58.558Z,1
2017-09-13T16:29:03.626Z,2
2017-09-13T16:34:09.360Z,1
2017-09-13T16:39:14.759Z,1
2017-09-13T16:44:20.157Z,1
2017-09-13T16:49:25.909Z,1
2017-09-13T16:54:31.305Z,1
2017-09-13T16:59:37.059Z,1
2017-09-13T17:04:42.730Z,0
2017-09-13T17:09:47.845Z,0
2017-09-13T17:14:53.196Z,0
2017-09-13T17:19:58.599Z,0
2017-09-13T17:25:04.001Z,0
2017-09-13T17:30:09.400Z,0
2017-09-13T17:35:14.461Z,0
2017-09-13T17:40:19.862Z,0
2017-09-13T17:45:24.589Z,0
2017-09-13T17:50:29.990Z,0
2017-09-13T17:55:35.722Z,0
2017-09-13T18:00:41.114Z,0
2017-09-13T18:05:46.844Z,0
2017-09-13T18:10:52.246Z,0
2017-09-13T18:15:56.970Z,0
2017-09-13T18:21:02.371Z,0
2017-09-13T18:26:07.773Z,0
2017-09-13T18:31:13.192Z,0
2017-09-13T18:36:18.592Z,0
2017-09-13T18:41:23.667Z,0
2017-09-13T18:46:29.169Z,0
2017-09-13T18:51:33.966Z,0
2017-09-13T18:56:38.715Z,0
2017-09-13T19:01:44.198Z,0
2017-09-13T19:06:48.929Z,0
2017-09-13T19:11:54.347Z,0
2017-09-13T19:16:59.751Z,0
2017-09-13T19:22:05.156Z,0
2017-09-13T19:27:10.248Z,0
2017-09-13T19:32:15.314Z,0
2017-09-13T19:37:20.732Z,0
2017-09-13T19:42:25.795Z,0
2017-09-13T19:47:30.530Z,0
2017-09-13T19:52:35.944Z,0
2017-09-13T19:57:41.266Z,0
2017-09-13T20:02:46.347Z,0
2017-09-13T20:07:51.430Z,0
2017-09-13T20:12:56.159Z,0
2017-09-13T20:18:00.888Z,0
2017-09-13T20:23:06.293Z,0
2017-09-13T20:28:11.021Z,0
2017-09-13T20:33:16.084Z,0
2017-09-13T20:38:21.152Z,0
2017-09-13T20:43:25.888Z,0
2017-09-13T20:48:30.954Z,0
2017-09-13T20:53:36.017Z,0
2017-09-13T20:58:41.079Z,0
2017-09-13T21:03:46.477Z,0
2017-09-13T21:08:51.540Z,0
2017-09-13T21:13:56.606Z,0
2017-09-13T21:19:01.998Z,0
2017-09-13T21:24:07.728Z,0
2017-09-13T21:29:13.463Z,0
2017-09-13T21:34:18.188Z,0
2017-09-13T21:39:23.252Z,0
2017-09-13T21:44:28.320Z,0
2017-09-13T21:49:33.718Z,0
2017-09-13T21:54:38.789Z,0
2017-09-13T21:59:44.182Z,0
2017-09-13T22:04:49.913Z,0
2017-09-13T22:09:55.306Z,0
2017-09-13T22:15:00.364Z,0
2017-09-13T22:20:05.427Z,0
2017-09-13T22:25:10.485Z,0
2017-09-13T22:30:15.882Z,0
2017-09-13T22:35:20.943Z,0
2017-09-13T22:40:25.336Z,0
2017-09-13T22:45:30.727Z,0
2017-09-13T22:50:36.117Z,0
2017-09-13T22:55:41.512Z,0
2017-09-13T23:00:46.571Z,0
2017-09-13T23:05:51.968Z,0
2017-09-13T23:10:57.030Z,0
2017-09-13T23:16:02.091Z,0
2017-09-13T23:21:07.823Z,0
2017-09-13T23:26:13.220Z,0
2017-09-13T23:31:18.948Z,0
2017-09-13T23:36:23.672Z,0
2017-09-13T23:41:28.059Z,0
2017-09-13T23:46:33.457Z,0
2017-09-13T23:51:38.514Z,0
2017-09-13T23:56:43.905Z,0
